O Kean, Arkansas
Current Conditions -  °F | °C
As of 4:15 AM on Thursday 29 Jan 2015 (Local Time) from KARG Reporting Station
Clear Clear  
Wind Chill: 54°   Ceiling: Unl
Heat Index: 54°   Visibility: 10mi
Dew Point: 39°   Wind: 16mph
Humidity: 58%   Direction: 210°SSW
Pressure: 29.93"   Gusts: 23mph
Location:  36.1919°N, 90.8295°W
Report Text: KARG 291015Z AUTO 21014G20KT 10SM CLR 12/04 A2993 RMK AO1
Loading
Personal Weather Stations






























Interactive Weather Map New forecast layout! Learn more

10-Day Weather Forecast

Advertisements
Track Severe Weather on mobile